sensor_id;sensor_type;location;lat;lon;timestamp;P1;durP1;ratioP1;P2;durP2;ratioP2
55082;SDS011;40978;52.850;6.506;2023-04-03T00:01:07;2.03;;;0.40;;
55082;SDS011;40978;52.850;6.506;2023-04-03T00:03:33;2.13;;;0.40;;
55082;SDS011;40978;52.850;6.506;2023-04-03T00:05:58;2.85;;;0.50;;
55082;SDS011;40978;52.850;6.506;2023-04-03T00:08:25;1.50;;;0.32;;
55082;SDS011;40978;52.850;6.506;2023-04-03T00:10:50;2.72;;;0.55;;
55082;SDS011;40978;52.850;6.506;2023-04-03T00:13:16;2.83;;;0.60;;
55082;SDS011;40978;52.850;6.506;2023-04-03T00:15:42;3.58;;;0.50;;
55082;SDS011;40978;52.850;6.506;2023-04-03T00:18:08;1.52;;;0.50;;
55082;SDS011;40978;52.850;6.506;2023-04-03T00:20:35;1.75;;;0.60;;
55082;SDS011;40978;52.850;6.506;2023-04-03T00:23:01;3.15;;;1.05;;
55082;SDS011;40978;52.850;6.506;2023-04-03T00:25:27;2.22;;;0.40;;
55082;SDS011;40978;52.850;6.506;2023-04-03T00:27:53;2.33;;;0.63;;
55082;SDS011;40978;52.850;6.506;2023-04-03T00:30:19;2.60;;;0.57;;
55082;SDS011;40978;52.850;6.506;2023-04-03T00:32:50;0.98;;;0.40;;
55082;SDS011;40978;52.850;6.506;2023-04-03T00:35:17;3.72;;;0.70;;
55082;SDS011;40978;52.850;6.506;2023-04-03T00:37:43;1.38;;;0.52;;
55082;SDS011;40978;52.850;6.506;2023-04-03T00:40:10;2.03;;;0.60;;
55082;SDS011;40978;52.850;6.506;2023-04-03T00:42:41;2.72;;;0.47;;
55082;SDS011;40978;52.850;6.506;2023-04-03T00:47:43;2.05;;;0.60;;
55082;SDS011;40978;52.850;6.506;2023-04-03T00:50:09;1.85;;;0.70;;
55082;SDS011;40978;52.850;6.506;2023-04-03T00:52:35;2.83;;;0.63;;
55082;SDS011;40978;52.850;6.506;2023-04-03T00:55:06;2.38;;;0.63;;
55082;SDS011;40978;52.850;6.506;2023-04-03T00:57:34;2.97;;;0.60;;
55082;SDS011;40978;52.850;6.506;2023-04-03T01:00:07;1.60;;;0.90;;
55082;SDS011;40978;52.850;6.506;2023-04-03T01:02:35;2.25;;;0.80;;
55082;SDS011;40978;52.850;6.506;2023-04-03T01:05:02;4.65;;;0.80;;
55082;SDS011;40978;52.850;6.506;2023-04-03T01:07:31;3.03;;;0.70;;
55082;SDS011;40978;52.850;6.506;2023-04-03T01:10:00;3.10;;;0.68;;
55082;SDS011;40978;52.850;6.506;2023-04-03T01:12:35;3.30;;;0.68;;
55082;SDS011;40978;52.850;6.506;2023-04-03T01:15:06;2.28;;;0.60;;
55082;SDS011;40978;52.850;6.506;2023-04-03T01:17:45;2.88;;;0.50;;
55082;SDS011;40978;52.850;6.506;2023-04-03T01:25:56;4.68;;;0.80;;
55082;SDS011;40978;52.850;6.506;2023-04-03T01:33:33;1.90;;;0.65;;
55082;SDS011;40978;52.850;6.506;2023-04-03T01:36:00;3.85;;;0.80;;
55082;SDS011;40978;52.850;6.506;2023-04-03T01:38:26;3.08;;;1.05;;
55082;SDS011;40978;52.850;6.506;2023-04-03T01:40:51;3.00;;;0.73;;
55082;SDS011;40978;52.850;6.506;2023-04-03T01:43:17;2.13;;;0.47;;
55082;SDS011;40978;52.850;6.506;2023-04-03T01:45:43;2.20;;;1.05;;
55082;SDS011;40978;52.850;6.506;2023-04-03T01:48:08;1.98;;;0.70;;
55082;SDS011;40978;52.850;6.506;2023-04-03T01:50:34;1.65;;;0.55;;
55082;SDS011;40978;52.850;6.506;2023-04-03T01:53:00;2.42;;;1.00;;
55082;SDS011;40978;52.850;6.506;2023-04-03T01:55:26;4.43;;;1.17;;
55082;SDS011;40978;52.850;6.506;2023-04-03T01:57:51;3.30;;;1.20;;
55082;SDS011;40978;52.850;6.506;2023-04-03T02:00:17;2.22;;;0.88;;
55082;SDS011;40978;52.850;6.506;2023-04-03T02:02:43;3.05;;;0.90;;
55082;SDS011;40978;52.850;6.506;2023-04-03T02:05:09;2.10;;;0.82;;
55082;SDS011;40978;52.850;6.506;2023-04-03T02:07:34;4.53;;;0.82;;
55082;SDS011;40978;52.850;6.506;2023-04-03T02:10:00;3.30;;;0.75;;
55082;SDS011;40978;52.850;6.506;2023-04-03T02:12:26;5.72;;;1.42;;
55082;SDS011;40978;52.850;6.506;2023-04-03T02:14:52;3.55;;;0.70;;
55082;SDS011;40978;52.850;6.506;2023-04-03T02:17:17;4.00;;;0.90;;
55082;SDS011;40978;52.850;6.506;2023-04-03T02:19:43;4.18;;;1.00;;
55082;SDS011;40978;52.850;6.506;2023-04-03T02:22:09;2.00;;;0.80;;
55082;SDS011;40978;52.850;6.506;2023-04-03T02:24:34;4.32;;;1.42;;
55082;SDS011;40978;52.850;6.506;2023-04-03T02:27:00;3.75;;;1.10;;
55082;SDS011;40978;52.850;6.506;2023-04-03T02:29:26;1.42;;;0.70;;
55082;SDS011;40978;52.850;6.506;2023-04-03T02:31:52;4.63;;;0.90;;
55082;SDS011;40978;52.850;6.506;2023-04-03T02:34:18;4.03;;;1.13;;
55082;SDS011;40978;52.850;6.506;2023-04-03T02:36:43;2.55;;;1.00;;
55082;SDS011;40978;52.850;6.506;2023-04-03T02:39:10;2.95;;;1.00;;
55082;SDS011;40978;52.850;6.506;2023-04-03T02:41:36;3.83;;;1.00;;
55082;SDS011;40978;52.850;6.506;2023-04-03T02:44:02;2.75;;;0.95;;
55082;SDS011;40978;52.850;6.506;2023-04-03T02:46:29;4.25;;;1.05;;
55082;SDS011;40978;52.850;6.506;2023-04-03T02:48:55;3.97;;;0.93;;
55082;SDS011;40978;52.850;6.506;2023-04-03T02:51:20;3.35;;;1.38;;
55082;SDS011;40978;52.850;6.506;2023-04-03T02:53:48;3.17;;;0.88;;
55082;SDS011;40978;52.850;6.506;2023-04-03T02:56:14;4.90;;;1.45;;
55082;SDS011;40978;52.850;6.506;2023-04-03T02:58:40;3.22;;;1.05;;
55082;SDS011;40978;52.850;6.506;2023-04-03T03:01:05;5.53;;;1.40;;
55082;SDS011;40978;52.850;6.506;2023-04-03T03:03:31;2.17;;;1.00;;
55082;SDS011;40978;52.850;6.506;2023-04-03T03:06:01;2.40;;;0.77;;
55082;SDS011;40978;52.850;6.506;2023-04-03T03:08:31;4.20;;;1.10;;
55082;SDS011;40978;52.850;6.506;2023-04-03T03:10:57;6.40;;;1.40;;
55082;SDS011;40978;52.850;6.506;2023-04-03T03:13:23;3.58;;;0.95;;
55082;SDS011;40978;52.850;6.506;2023-04-03T03:15:50;2.67;;;1.10;;
55082;SDS011;40978;52.850;6.506;2023-04-03T03:18:16;5.20;;;1.23;;
55082;SDS011;40978;52.850;6.506;2023-04-03T03:20:41;3.55;;;0.90;;
55082;SDS011;40978;52.850;6.506;2023-04-03T03:23:07;4.28;;;1.55;;
55082;SDS011;40978;52.850;6.506;2023-04-03T03:25:33;3.58;;;1.25;;
55082;SDS011;40978;52.850;6.506;2023-04-03T03:28:02;3.72;;;1.27;;
55082;SDS011;40978;52.850;6.506;2023-04-03T03:30:28;6.95;;;1.58;;
55082;SDS011;40978;52.850;6.506;2023-04-03T03:32:53;7.32;;;1.27;;
55082;SDS011;40978;52.850;6.506;2023-04-03T03:35:19;5.30;;;1.45;;
55082;SDS011;40978;52.850;6.506;2023-04-03T03:37:45;4.55;;;1.10;;
55082;SDS011;40978;52.850;6.506;2023-04-03T03:40:10;3.85;;;1.08;;
55082;SDS011;40978;52.850;6.506;2023-04-03T03:42:38;2.05;;;0.98;;
55082;SDS011;40978;52.850;6.506;2023-04-03T03:45:04;2.95;;;1.45;;
55082;SDS011;40978;52.850;6.506;2023-04-03T03:47:30;5.13;;;1.48;;
55082;SDS011;40978;52.850;6.506;2023-04-03T03:49:56;2.78;;;1.23;;
55082;SDS011;40978;52.850;6.506;2023-04-03T03:52:22;4.05;;;1.50;;
55082;SDS011;40978;52.850;6.506;2023-04-03T03:54:48;2.97;;;1.27;;
55082;SDS011;40978;52.850;6.506;2023-04-03T03:57:13;4.28;;;1.48;;
55082;SDS011;40978;52.850;6.506;2023-04-03T03:59:40;5.65;;;1.17;;
55082;SDS011;40978;52.850;6.506;2023-04-03T04:02:06;6.55;;;1.42;;
55082;SDS011;40978;52.850;6.506;2023-04-03T04:04:32;4.32;;;1.40;;
55082;SDS011;40978;52.850;6.506;2023-04-03T04:06:58;4.78;;;1.25;;
55082;SDS011;40978;52.850;6.506;2023-04-03T04:09:25;5.07;;;1.70;;
55082;SDS011;40978;52.850;6.506;2023-04-03T04:11:53;4.10;;;1.27;;
55082;SDS011;40978;52.850;6.506;2023-04-03T04:14:19;4.97;;;1.20;;
55082;SDS011;40978;52.850;6.506;2023-04-03T04:16:47;6.22;;;1.30;;
55082;SDS011;40978;52.850;6.506;2023-04-03T04:19:13;3.35;;;1.20;;
55082;SDS011;40978;52.850;6.506;2023-04-03T04:21:39;6.47;;;1.80;;
55082;SDS011;40978;52.850;6.506;2023-04-03T04:24:06;4.75;;;1.40;;
55082;SDS011;40978;52.850;6.506;2023-04-03T04:26:33;5.70;;;1.42;;
55082;SDS011;40978;52.850;6.506;2023-04-03T04:28:59;5.68;;;1.70;;
55082;SDS011;40978;52.850;6.506;2023-04-03T04:31:25;6.13;;;1.73;;
55082;SDS011;40978;52.850;6.506;2023-04-03T04:33:51;7.95;;;1.63;;
55082;SDS011;40978;52.850;6.506;2023-04-03T04:36:17;2.80;;;1.38;;
55082;SDS011;40978;52.850;6.506;2023-04-03T04:38:43;4.35;;;1.40;;
55082;SDS011;40978;52.850;6.506;2023-04-03T04:41:09;4.50;;;1.65;;
55082;SDS011;40978;52.850;6.506;2023-04-03T04:43:35;5.30;;;2.03;;
55082;SDS011;40978;52.850;6.506;2023-04-03T04:46:01;3.50;;;1.58;;
55082;SDS011;40978;52.850;6.506;2023-04-03T04:48:29;4.78;;;2.13;;
55082;SDS011;40978;52.850;6.506;2023-04-03T04:50:55;5.25;;;2.10;;
55082;SDS011;40978;52.850;6.506;2023-04-03T04:53:20;7.38;;;1.67;;
55082;SDS011;40978;52.850;6.506;2023-04-03T04:55:46;4.95;;;1.65;;
55082;SDS011;40978;52.850;6.506;2023-04-03T04:58:12;5.35;;;1.67;;
55082;SDS011;40978;52.850;6.506;2023-04-03T05:00:38;5.30;;;2.03;;
55082;SDS011;40978;52.850;6.506;2023-04-03T05:03:04;7.10;;;2.05;;
55082;SDS011;40978;52.850;6.506;2023-04-03T05:05:30;4.47;;;2.00;;
55082;SDS011;40978;52.850;6.506;2023-04-03T05:07:56;6.32;;;2.20;;
55082;SDS011;40978;52.850;6.506;2023-04-03T05:10:21;4.10;;;1.92;;
55082;SDS011;40978;52.850;6.506;2023-04-03T05:12:47;5.55;;;1.83;;
55082;SDS011;40978;52.850;6.506;2023-04-03T05:15:13;6.38;;;2.28;;
55082;SDS011;40978;52.850;6.506;2023-04-03T05:17:38;9.55;;;2.40;;
55082;SDS011;40978;52.850;6.506;2023-04-03T05:20:04;5.18;;;1.90;;
55082;SDS011;40978;52.850;6.506;2023-04-03T05:22:31;7.47;;;2.35;;
55082;SDS011;40978;52.850;6.506;2023-04-03T05:24:57;9.50;;;2.08;;
55082;SDS011;40978;52.850;6.506;2023-04-03T05:27:22;5.57;;;2.25;;
55082;SDS011;40978;52.850;6.506;2023-04-03T05:29:49;6.00;;;2.25;;
55082;SDS011;40978;52.850;6.506;2023-04-03T05:32:17;6.60;;;2.17;;
55082;SDS011;40978;52.850;6.506;2023-04-03T05:34:43;4.95;;;2.25;;
55082;SDS011;40978;52.850;6.506;2023-04-03T05:37:08;10.05;;;2.10;;
55082;SDS011;40978;52.850;6.506;2023-04-03T05:39:34;6.35;;;1.83;;
55082;SDS011;40978;52.850;6.506;2023-04-03T05:42:00;3.42;;;1.83;;
55082;SDS011;40978;52.850;6.506;2023-04-03T05:44:26;3.47;;;1.67;;
55082;SDS011;40978;52.850;6.506;2023-04-03T05:46:51;8.32;;;2.15;;
55082;SDS011;40978;52.850;6.506;2023-04-03T05:49:17;6.97;;;2.40;;
55082;SDS011;40978;52.850;6.506;2023-04-03T05:51:43;5.93;;;2.30;;
55082;SDS011;40978;52.850;6.506;2023-04-03T05:54:20;6.88;;;1.58;;
55082;SDS011;40978;52.850;6.506;2023-04-03T05:56:49;4.20;;;1.83;;
55082;SDS011;40978;52.850;6.506;2023-04-03T05:59:15;5.95;;;2.00;;
55082;SDS011;40978;52.850;6.506;2023-04-03T06:01:41;4.20;;;1.75;;
55082;SDS011;40978;52.850;6.506;2023-04-03T06:04:07;7.53;;;1.90;;
55082;SDS011;40978;52.850;6.506;2023-04-03T06:09:23;4.95;;;2.08;;
55082;SDS011;40978;52.850;6.506;2023-04-03T06:11:51;8.15;;;2.53;;
55082;SDS011;40978;52.850;6.506;2023-04-03T06:14:18;7.68;;;2.00;;
55082;SDS011;40978;52.850;6.506;2023-04-03T06:16:44;5.15;;;1.70;;
55082;SDS011;40978;52.850;6.506;2023-04-03T06:19:11;7.30;;;1.98;;
55082;SDS011;40978;52.850;6.506;2023-04-03T06:21:37;8.90;;;2.47;;
55082;SDS011;40978;52.850;6.506;2023-04-03T06:24:05;5.20;;;1.80;;
55082;SDS011;40978;52.850;6.506;2023-04-03T06:26:32;5.15;;;1.67;;
55082;SDS011;40978;52.850;6.506;2023-04-03T06:28:59;5.75;;;1.88;;
55082;SDS011;40978;52.850;6.506;2023-04-03T06:31:25;6.22;;;1.85;;
55082;SDS011;40978;52.850;6.506;2023-04-03T06:33:51;5.20;;;1.92;;
55082;SDS011;40978;52.850;6.506;2023-04-03T06:36:18;5.47;;;1.60;;
55082;SDS011;40978;52.850;6.506;2023-04-03T06:38:45;5.93;;;1.48;;
55082;SDS011;40978;52.850;6.506;2023-04-03T06:41:12;6.18;;;1.77;;
55082;SDS011;40978;52.850;6.506;2023-04-03T06:43:38;4.65;;;1.80;;
55082;SDS011;40978;52.850;6.506;2023-04-03T06:46:03;6.32;;;2.53;;
55082;SDS011;40978;52.850;6.506;2023-04-03T06:48:30;8.57;;;1.80;;
55082;SDS011;40978;52.850;6.506;2023-04-03T06:50:56;6.32;;;1.73;;
55082;SDS011;40978;52.850;6.506;2023-04-03T06:53:22;8.07;;;2.03;;
55082;SDS011;40978;52.850;6.506;2023-04-03T06:55:47;7.43;;;2.08;;
55082;SDS011;40978;52.850;6.506;2023-04-03T06:58:13;4.05;;;1.42;;
55082;SDS011;40978;52.850;6.506;2023-04-03T07:00:40;7.13;;;2.08;;
55082;SDS011;40978;52.850;6.506;2023-04-03T07:03:06;5.90;;;1.58;;
55082;SDS011;40978;52.850;6.506;2023-04-03T07:05:32;3.42;;;1.25;;
55082;SDS011;40978;52.850;6.506;2023-04-03T07:07:58;6.20;;;1.83;;
55082;SDS011;40978;52.850;6.506;2023-04-03T07:10:23;3.45;;;1.30;;
55082;SDS011;40978;52.850;6.506;2023-04-03T07:12:49;5.00;;;1.73;;
55082;SDS011;40978;52.850;6.506;2023-04-03T07:15:16;5.43;;;1.30;;
55082;SDS011;40978;52.850;6.506;2023-04-03T07:17:42;6.45;;;1.55;;
55082;SDS011;40978;52.850;6.506;2023-04-03T07:20:07;3.95;;;1.13;;
55082;SDS011;40978;52.850;6.506;2023-04-03T07:22:33;3.40;;;1.33;;
55082;SDS011;40978;52.850;6.506;2023-04-03T07:24:59;4.70;;;1.60;;
55082;SDS011;40978;52.850;6.506;2023-04-03T07:27:25;4.45;;;1.17;;
55082;SDS011;40978;52.850;6.506;2023-04-03T07:29:51;4.28;;;1.65;;
55082;SDS011;40978;52.850;6.506;2023-04-03T07:32:17;5.32;;;1.27;;
55082;SDS011;40978;52.850;6.506;2023-04-03T07:34:42;4.80;;;1.23;;
55082;SDS011;40978;52.850;6.506;2023-04-03T07:37:09;5.72;;;1.73;;
55082;SDS011;40978;52.850;6.506;2023-04-03T07:39:35;3.83;;;1.10;;
55082;SDS011;40978;52.850;6.506;2023-04-03T07:42:01;3.65;;;1.10;;
55082;SDS011;40978;52.850;6.506;2023-04-03T07:44:27;6.80;;;1.58;;
55082;SDS011;40978;52.850;6.506;2023-04-03T07:46:53;4.50;;;1.17;;
55082;SDS011;40978;52.850;6.506;2023-04-03T07:49:21;3.25;;;1.02;;
55082;SDS011;40978;52.850;6.506;2023-04-03T07:51:49;7.55;;;1.35;;
55082;SDS011;40978;52.850;6.506;2023-04-03T07:54:15;6.22;;;1.42;;
55082;SDS011;40978;52.850;6.506;2023-04-03T07:56:41;5.93;;;1.70;;
55082;SDS011;40978;52.850;6.506;2023-04-03T07:59:08;3.47;;;1.00;;
55082;SDS011;40978;52.850;6.506;2023-04-03T08:01:35;4.05;;;1.00;;
55082;SDS011;40978;52.850;6.506;2023-04-03T08:04:01;4.60;;;1.05;;
55082;SDS011;40978;52.850;6.506;2023-04-03T08:06:27;2.65;;;0.80;;
55082;SDS011;40978;52.850;6.506;2023-04-03T08:08:54;2.83;;;0.77;;
55082;SDS011;40978;52.850;6.506;2023-04-03T08:11:21;4.30;;;1.25;;
55082;SDS011;40978;52.850;6.506;2023-04-03T08:13:47;2.30;;;0.70;;
55082;SDS011;40978;52.850;6.506;2023-04-03T08:16:16;3.03;;;0.90;;
55082;SDS011;40978;52.850;6.506;2023-04-03T08:18:43;2.97;;;0.82;;
55082;SDS011;40978;52.850;6.506;2023-04-03T08:21:10;5.13;;;1.02;;
55082;SDS011;40978;52.850;6.506;2023-04-03T08:23:37;2.42;;;0.80;;
55082;SDS011;40978;52.850;6.506;2023-04-03T08:26:11;3.28;;;0.70;;
55082;SDS011;40978;52.850;6.506;2023-04-03T08:28:38;6.30;;;3.30;;
55082;SDS011;40978;52.850;6.506;2023-04-03T08:31:09;3.85;;;0.70;;
55082;SDS011;40978;52.850;6.506;2023-04-03T08:33:37;4.20;;;1.90;;
55082;SDS011;40978;52.850;6.506;2023-04-03T08:36:04;3.78;;;1.10;;
55082;SDS011;40978;52.850;6.506;2023-04-03T08:38:31;3.65;;;0.90;;
55082;SDS011;40978;52.850;6.506;2023-04-03T08:41:05;3.38;;;0.93;;
55082;SDS011;40978;52.850;6.506;2023-04-03T08:46:11;2.08;;;0.75;;
55082;SDS011;40978;52.850;6.506;2023-04-03T08:48:41;2.33;;;0.70;;
55082;SDS011;40978;52.850;6.506;2023-04-03T08:51:13;4.25;;;0.80;;
55082;SDS011;40978;52.850;6.506;2023-04-03T08:53:46;3.58;;;0.93;;
55082;SDS011;40978;52.850;6.506;2023-04-03T08:56:23;2.78;;;0.80;;
55082;SDS011;40978;52.850;6.506;2023-04-03T08:58:52;3.83;;;0.98;;
55082;SDS011;40978;52.850;6.506;2023-04-03T09:04:01;3.17;;;0.80;;
55082;SDS011;40978;52.850;6.506;2023-04-03T09:06:29;1.60;;;0.57;;
55082;SDS011;40978;52.850;6.506;2023-04-03T09:17:59;3.65;;;0.70;;
55082;SDS011;40978;52.850;6.506;2023-04-03T09:20:34;2.30;;;0.70;;
55082;SDS011;40978;52.850;6.506;2023-04-03T09:26:11;2.03;;;0.60;;
55082;SDS011;40978;52.850;6.506;2023-04-03T09:28:45;2.33;;;0.90;;
55082;SDS011;40978;52.850;6.506;2023-04-03T09:33:54;2.38;;;0.52;;
55082;SDS011;40978;52.850;6.506;2023-04-03T09:36:41;4.50;;;0.45;;
55082;SDS011;40978;52.850;6.506;2023-04-03T09:39:22;1.80;;;0.60;;
55082;SDS011;40978;52.850;6.506;2023-04-03T09:42:35;1.60;;;0.40;;
55082;SDS011;40978;52.850;6.506;2023-04-03T09:44:48;1.52;;;0.60;;
55082;SDS011;40978;52.850;6.506;2023-04-03T09:47:26;1.92;;;0.50;;
55082;SDS011;40978;52.850;6.506;2023-04-03T09:52:38;1.20;;;0.30;;
55082;SDS011;40978;52.850;6.506;2023-04-03T09:55:16;2.80;;;0.63;;
55082;SDS011;40978;52.850;6.506;2023-04-03T09:57:44;1.08;;;0.30;;
55082;SDS011;40978;52.850;6.506;2023-04-03T10:00:21;2.00;;;0.45;;
55082;SDS011;40978;52.850;6.506;2023-04-03T10:02:55;1.45;;;0.40;;
55082;SDS011;40978;52.850;6.506;2023-04-03T10:10:44;1.65;;;0.40;;
55082;SDS011;40978;52.850;6.506;2023-04-03T10:15:59;1.67;;;0.50;;
55082;SDS011;40978;52.850;6.506;2023-04-03T10:21:00;1.73;;;0.52;;
55082;SDS011;40978;52.850;6.506;2023-04-03T10:23:41;1.13;;;0.30;;
55082;SDS011;40978;52.850;6.506;2023-04-03T10:42:12;1.30;;;0.30;;
55082;SDS011;40978;52.850;6.506;2023-04-03T10:44:56;3.10;;;0.70;;
55082;SDS011;40978;52.850;6.506;2023-04-03T10:47:46;1.80;;;0.40;;
55082;SDS011;40978;52.850;6.506;2023-04-03T10:55:46;1.67;;;0.50;;
55082;SDS011;40978;52.850;6.506;2023-04-03T10:58:30;1.60;;;0.68;;
55082;SDS011;40978;52.850;6.506;2023-04-03T11:01:08;2.10;;;0.50;;
55082;SDS011;40978;52.850;6.506;2023-04-03T11:03:47;2.45;;;0.40;;
55082;SDS011;40978;52.850;6.506;2023-04-03T11:06:16;2.70;;;0.50;;
55082;SDS011;40978;52.850;6.506;2023-04-03T11:08:51;1.77;;;0.40;;
55082;SDS011;40978;52.850;6.506;2023-04-03T11:11:24;2.35;;;0.45;;
55082;SDS011;40978;52.850;6.506;2023-04-03T11:14:01;1.50;;;0.40;;
55082;SDS011;40978;52.850;6.506;2023-04-03T11:16:31;3.25;;;0.63;;
55082;SDS011;40978;52.850;6.506;2023-04-03T11:21:37;3.30;;;0.85;;
55082;SDS011;40978;52.850;6.506;2023-04-03T11:24:05;1.20;;;0.40;;
55082;SDS011;40978;52.850;6.506;2023-04-03T11:26:45;2.75;;;0.68;;
55082;SDS011;40978;52.850;6.506;2023-04-03T11:29:15;3.20;;;0.50;;
55082;SDS011;40978;52.850;6.506;2023-04-03T11:32:02;2.08;;;0.40;;
55082;SDS011;40978;52.850;6.506;2023-04-03T11:34:40;1.73;;;0.60;;
55082;SDS011;40978;52.850;6.506;2023-04-03T11:37:23;1.48;;;0.35;;
55082;SDS011;40978;52.850;6.506;2023-04-03T11:39:57;3.28;;;1.25;;
55082;SDS011;40978;52.850;6.506;2023-04-03T11:42:29;4.43;;;1.65;;
55082;SDS011;40978;52.850;6.506;2023-04-03T11:47:48;2.70;;;0.60;;
55082;SDS011;40978;52.850;6.506;2023-04-03T11:53:00;2.67;;;0.50;;
55082;SDS011;40978;52.850;6.506;2023-04-03T11:58:16;1.80;;;0.50;;
55082;SDS011;40978;52.850;6.506;2023-04-03T12:29:26;2.08;;;0.55;;
55082;SDS011;40978;52.850;6.506;2023-04-03T12:40:37;3.47;;;0.70;;
55082;SDS011;40978;52.850;6.506;2023-04-03T12:43:20;1.58;;;0.60;;
55082;SDS011;40978;52.850;6.506;2023-04-03T12:45:51;2.80;;;0.50;;
55082;SDS011;40978;52.850;6.506;2023-04-03T12:48:27;2.53;;;0.80;;
55082;SDS011;40978;52.850;6.506;2023-04-03T12:50:55;1.60;;;0.43;;
55082;SDS011;40978;52.850;6.506;2023-04-03T12:53:31;1.67;;;0.50;;
55082;SDS011;40978;52.850;6.506;2023-04-03T12:58:44;2.13;;;0.75;;
55082;SDS011;40978;52.850;6.506;2023-04-03T13:01:11;2.75;;;0.88;;
55082;SDS011;40978;52.850;6.506;2023-04-03T13:03:40;1.42;;;0.50;;
55082;SDS011;40978;52.850;6.506;2023-04-03T13:06:29;2.72;;;0.70;;
55082;SDS011;40978;52.850;6.506;2023-04-03T13:09:00;1.90;;;0.63;;
55082;SDS011;40978;52.850;6.506;2023-04-03T13:11:27;3.10;;;0.80;;
55082;SDS011;40978;52.850;6.506;2023-04-03T13:14:00;2.97;;;0.43;;
55082;SDS011;40978;52.850;6.506;2023-04-03T13:16:30;5.18;;;1.45;;
55082;SDS011;40978;52.850;6.506;2023-04-03T13:18:58;3.28;;;0.85;;
55082;SDS011;40978;52.850;6.506;2023-04-03T13:21:25;2.30;;;0.50;;
55082;SDS011;40978;52.850;6.506;2023-04-03T13:23:58;1.60;;;0.57;;
55082;SDS011;40978;52.850;6.506;2023-04-03T13:26:30;2.55;;;0.65;;
55082;SDS011;40978;52.850;6.506;2023-04-03T13:29:02;1.63;;;0.60;;
55082;SDS011;40978;52.850;6.506;2023-04-03T13:31:42;3.03;;;1.50;;
55082;SDS011;40978;52.850;6.506;2023-04-03T13:34:16;3.53;;;0.90;;
55082;SDS011;40978;52.850;6.506;2023-04-03T13:37:06;2.22;;;0.73;;
55082;SDS011;40978;52.850;6.506;2023-04-03T13:39:36;4.03;;;1.00;;
55082;SDS011;40978;52.850;6.506;2023-04-03T13:42:26;2.53;;;0.75;;
55082;SDS011;40978;52.850;6.506;2023-04-03T13:47:53;2.70;;;1.05;;
55082;SDS011;40978;52.850;6.506;2023-04-03T13:51:00;2.13;;;0.73;;
55082;SDS011;40978;52.850;6.506;2023-04-03T13:53:29;2.97;;;0.70;;
55082;SDS011;40978;52.850;6.506;2023-04-03T13:55:59;2.03;;;0.85;;
55082;SDS011;40978;52.850;6.506;2023-04-03T13:58:28;2.05;;;0.90;;
55082;SDS011;40978;52.850;6.506;2023-04-03T14:01:07;1.63;;;0.68;;
55082;SDS011;40978;52.850;6.506;2023-04-03T14:06:08;2.67;;;0.65;;
55082;SDS011;40978;52.850;6.506;2023-04-03T14:08:37;1.85;;;0.68;;
55082;SDS011;40978;52.850;6.506;2023-04-03T14:11:03;2.78;;;0.88;;
55082;SDS011;40978;52.850;6.506;2023-04-03T14:13:29;2.25;;;0.82;;
55082;SDS011;40978;52.850;6.506;2023-04-03T14:15:57;2.08;;;0.77;;
55082;SDS011;40978;52.850;6.506;2023-04-03T14:18:23;1.70;;;0.70;;
55082;SDS011;40978;52.850;6.506;2023-04-03T14:20:49;2.58;;;0.88;;
55082;SDS011;40978;52.850;6.506;2023-04-03T14:23:15;2.50;;;0.70;;
55082;SDS011;40978;52.850;6.506;2023-04-03T14:25:41;1.75;;;0.60;;
55082;SDS011;40978;52.850;6.506;2023-04-03T14:28:18;3.35;;;0.60;;
55082;SDS011;40978;52.850;6.506;2023-04-03T14:30:46;4.10;;;0.68;;
55082;SDS011;40978;52.850;6.506;2023-04-03T14:33:13;2.80;;;0.80;;
55082;SDS011;40978;52.850;6.506;2023-04-03T14:35:42;3.25;;;0.90;;
55082;SDS011;40978;52.850;6.506;2023-04-03T14:38:20;2.70;;;1.00;;
55082;SDS011;40978;52.850;6.506;2023-04-03T14:40:51;2.08;;;0.70;;
55082;SDS011;40978;52.850;6.506;2023-04-03T14:43:17;2.55;;;1.02;;
55082;SDS011;40978;52.850;6.506;2023-04-03T14:45:43;1.95;;;0.80;;
55082;SDS011;40978;52.850;6.506;2023-04-03T14:48:11;4.47;;;1.30;;
55082;SDS011;40978;52.850;6.506;2023-04-03T14:50:49;2.08;;;1.08;;
55082;SDS011;40978;52.850;6.506;2023-04-03T14:53:16;1.92;;;0.77;;
55082;SDS011;40978;52.850;6.506;2023-04-03T14:55:47;2.88;;;1.27;;
55082;SDS011;40978;52.850;6.506;2023-04-03T14:58:15;3.03;;;1.10;;
55082;SDS011;40978;52.850;6.506;2023-04-03T15:00:45;2.30;;;0.80;;
55082;SDS011;40978;52.850;6.506;2023-04-03T15:03:19;2.22;;;0.90;;
55082;SDS011;40978;52.850;6.506;2023-04-03T15:05:47;4.70;;;1.08;;
55082;SDS011;40978;52.850;6.506;2023-04-03T15:08:19;3.70;;;1.27;;
55082;SDS011;40978;52.850;6.506;2023-04-03T15:10:49;4.25;;;1.02;;
55082;SDS011;40978;52.850;6.506;2023-04-03T15:13:18;3.15;;;1.00;;
55082;SDS011;40978;52.850;6.506;2023-04-03T15:15:44;2.45;;;1.00;;
55082;SDS011;40978;52.850;6.506;2023-04-03T15:18:20;4.47;;;1.00;;
55082;SDS011;40978;52.850;6.506;2023-04-03T15:20:49;3.15;;;0.60;;
55082;SDS011;40978;52.850;6.506;2023-04-03T15:23:15;2.75;;;0.90;;
55082;SDS011;40978;52.850;6.506;2023-04-03T15:25:42;1.92;;;0.70;;
55082;SDS011;40978;52.850;6.506;2023-04-03T15:28:11;4.18;;;1.02;;
55082;SDS011;40978;52.850;6.506;2023-04-03T15:30:44;2.38;;;0.82;;
55082;SDS011;40978;52.850;6.506;2023-04-03T15:33:10;2.67;;;0.70;;
55082;SDS011;40978;52.850;6.506;2023-04-03T15:35:35;3.42;;;1.08;;
55082;SDS011;40978;52.850;6.506;2023-04-03T15:38:01;2.30;;;0.80;;
55082;SDS011;40978;52.850;6.506;2023-04-03T15:40:27;3.33;;;1.00;;
55082;SDS011;40978;52.850;6.506;2023-04-03T15:42:53;2.30;;;0.55;;
55082;SDS011;40978;52.850;6.506;2023-04-03T15:45:19;3.65;;;0.80;;
55082;SDS011;40978;52.850;6.506;2023-04-03T15:47:46;3.25;;;0.93;;
55082;SDS011;40978;52.850;6.506;2023-04-03T15:50:12;4.03;;;0.90;;
55082;SDS011;40978;52.850;6.506;2023-04-03T15:52:38;4.18;;;1.00;;
55082;SDS011;40978;52.850;6.506;2023-04-03T15:55:04;4.57;;;1.13;;
55082;SDS011;40978;52.850;6.506;2023-04-03T15:57:30;1.75;;;0.80;;
55082;SDS011;40978;52.850;6.506;2023-04-03T15:59:56;3.40;;;0.90;;
55082;SDS011;40978;52.850;6.506;2023-04-03T16:02:22;2.25;;;0.63;;
55082;SDS011;40978;52.850;6.506;2023-04-03T16:04:48;3.78;;;0.85;;
55082;SDS011;40978;52.850;6.506;2023-04-03T16:07:14;1.77;;;0.88;;
55082;SDS011;40978;52.850;6.506;2023-04-03T16:09:40;3.08;;;0.77;;
55082;SDS011;40978;52.850;6.506;2023-04-03T16:12:06;2.45;;;0.85;;
55082;SDS011;40978;52.850;6.506;2023-04-03T16:14:31;3.95;;;0.85;;
55082;SDS011;40978;52.850;6.506;2023-04-03T16:16:58;2.45;;;0.73;;
55082;SDS011;40978;52.850;6.506;2023-04-03T16:19:24;3.30;;;0.65;;
55082;SDS011;40978;52.850;6.506;2023-04-03T16:21:50;2.90;;;0.77;;
55082;SDS011;40978;52.850;6.506;2023-04-03T16:24:16;3.42;;;1.00;;
55082;SDS011;40978;52.850;6.506;2023-04-03T16:26:41;3.17;;;1.00;;
55082;SDS011;40978;52.850;6.506;2023-04-03T16:29:07;3.30;;;0.90;;
55082;SDS011;40978;52.850;6.506;2023-04-03T16:31:33;2.50;;;0.80;;
55082;SDS011;40978;52.850;6.506;2023-04-03T16:33:58;2.08;;;0.60;;
55082;SDS011;40978;52.850;6.506;2023-04-03T16:36:26;1.73;;;0.63;;
55082;SDS011;40978;52.850;6.506;2023-04-03T16:38:51;2.75;;;0.70;;
55082;SDS011;40978;52.850;6.506;2023-04-03T16:41:17;3.30;;;1.15;;
55082;SDS011;40978;52.850;6.506;2023-04-03T16:43:43;2.67;;;0.63;;
55082;SDS011;40978;52.850;6.506;2023-04-03T16:46:09;2.53;;;0.73;;
55082;SDS011;40978;52.850;6.506;2023-04-03T16:48:34;3.53;;;0.60;;
55082;SDS011;40978;52.850;6.506;2023-04-03T16:51:00;2.38;;;0.65;;
55082;SDS011;40978;52.850;6.506;2023-04-03T16:53:26;2.10;;;0.88;;
55082;SDS011;40978;52.850;6.506;2023-04-03T16:55:52;3.20;;;0.80;;
55082;SDS011;40978;52.850;6.506;2023-04-03T16:58:18;2.95;;;0.75;;
55082;SDS011;40978;52.850;6.506;2023-04-03T17:00:44;2.55;;;0.73;;
55082;SDS011;40978;52.850;6.506;2023-04-03T17:03:12;3.35;;;1.00;;